aviador You're here:

PHHI Decoded Metar

WHEELER AFB. in HI, USA OAHU ISL.
Report Time2017-09-20 19:58:00
UTC Time2017-09-20 20:07:07
Flight Rules vfr VFR
WindCalm
Visibility9999 m
Phenomena:N/A
Clouds:Scattered 031 Hf
Scattered 049 Hf
Expected CloudBase > 3,200 ft AGL from Temp-Dew spread
CeilingNone
Temp27°C (ISA +14)
Dew Point19°C (62% RH)
Heat Index28.2°C
QNH1018 hPa
Density Alt2,536 ft
Elevation837 ft
Report Wrong Elevation
Raw Report
METAR PHHI 201958Z AUTO 00000KT 10SM SCT031 SCT049 27/19 A3005 RMK
AO2 SLP163 T02710190 $=

Extra information for PHHI:More info

Metar Taf Metar & Taf Last 4 Metars F.Rules Stats Wind Profile Meteogram Temp Stats Airport Information Weather charts Add Link Nearby VenuesMetar ALERT Operation Metar Decoded Social comments